sensor_id;sensor_type;location;lat;lon;timestamp;temperature;humidity
25050;DHT22;13046;49.814;9.918;2022-07-04T00:00:23;18.40;99.90
25050;DHT22;13046;49.814;9.918;2022-07-04T00:02:50;18.40;99.90
25050;DHT22;13046;49.814;9.918;2022-07-04T00:05:16;18.40;99.90
25050;DHT22;13046;49.814;9.918;2022-07-04T00:07:45;18.40;99.90
25050;DHT22;13046;49.814;9.918;2022-07-04T00:10:13;18.40;99.90
25050;DHT22;13046;49.814;9.918;2022-07-04T00:12:39;18.40;99.90
25050;DHT22;13046;49.814;9.918;2022-07-04T00:15:05;18.40;99.90
25050;DHT22;13046;49.814;9.918;2022-07-04T00:17:32;18.50;99.90
25050;DHT22;13046;49.814;9.918;2022-07-04T00:19:57;18.50;99.90
25050;DHT22;13046;49.814;9.918;2022-07-04T00:22:23;18.60;99.90
25050;DHT22;13046;49.814;9.918;2022-07-04T00:24:49;18.60;99.90
25050;DHT22;13046;49.814;9.918;2022-07-04T00:27:14;18.50;99.90
25050;DHT22;13046;49.814;9.918;2022-07-04T00:29:40;18.50;99.90
25050;DHT22;13046;49.814;9.918;2022-07-04T00:32:06;18.50;99.90
25050;DHT22;13046;49.814;9.918;2022-07-04T00:34:31;18.50;99.90
25050;DHT22;13046;49.814;9.918;2022-07-04T00:36:57;18.50;99.90
25050;DHT22;13046;49.814;9.918;2022-07-04T00:39:23;18.50;99.90
25050;DHT22;13046;49.814;9.918;2022-07-04T00:41:48;18.40;99.90
25050;DHT22;13046;49.814;9.918;2022-07-04T00:44:14;18.30;99.90
25050;DHT22;13046;49.814;9.918;2022-07-04T00:46:44;18.30;99.90
25050;DHT22;13046;49.814;9.918;2022-07-04T00:49:11;18.20;99.90
25050;DHT22;13046;49.814;9.918;2022-07-04T00:51:39;18.10;99.90
25050;DHT22;13046;49.814;9.918;2022-07-04T00:54:06;18.10;99.90
25050;DHT22;13046;49.814;9.918;2022-07-04T00:56:34;18.10;99.90
25050;DHT22;13046;49.814;9.918;2022-07-04T00:59:00;18.10;99.90
25050;DHT22;13046;49.814;9.918;2022-07-04T01:01:26;18.00;99.90
25050;DHT22;13046;49.814;9.918;2022-07-04T01:03:52;17.90;99.90
25050;DHT22;13046;49.814;9.918;2022-07-04T01:06:18;17.90;99.90
25050;DHT22;13046;49.814;9.918;2022-07-04T01:08:45;17.90;99.90
25050;DHT22;13046;49.814;9.918;2022-07-04T01:11:12;17.90;99.90
25050;DHT22;13046;49.814;9.918;2022-07-04T01:13:38;17.90;99.90
25050;DHT22;13046;49.814;9.918;2022-07-04T01:16:06;17.90;99.90
25050;DHT22;13046;49.814;9.918;2022-07-04T01:18:32;17.90;99.90
25050;DHT22;13046;49.814;9.918;2022-07-04T01:20:58;17.90;99.90
25050;DHT22;13046;49.814;9.918;2022-07-04T01:23:24;17.80;99.90
25050;DHT22;13046;49.814;9.918;2022-07-04T01:25:49;17.70;99.90
25050;DHT22;13046;49.814;9.918;2022-07-04T01:28:17;17.60;99.90
25050;DHT22;13046;49.814;9.918;2022-07-04T01:30:43;17.60;99.90
25050;DHT22;13046;49.814;9.918;2022-07-04T01:33:08;17.70;99.90
25050;DHT22;13046;49.814;9.918;2022-07-04T01:35:34;17.70;99.90
25050;DHT22;13046;49.814;9.918;2022-07-04T01:38:00;17.60;99.90
25050;DHT22;13046;49.814;9.918;2022-07-04T01:40:27;17.60;99.90
25050;DHT22;13046;49.814;9.918;2022-07-04T01:42:53;17.40;99.90
25050;DHT22;13046;49.814;9.918;2022-07-04T01:45:19;17.20;99.90
25050;DHT22;13046;49.814;9.918;2022-07-04T01:47:44;17.30;99.90
25050;DHT22;13046;49.814;9.918;2022-07-04T01:50:10;17.30;99.90
25050;DHT22;13046;49.814;9.918;2022-07-04T01:52:40;17.40;99.90
25050;DHT22;13046;49.814;9.918;2022-07-04T01:55:07;17.40;99.90
25050;DHT22;13046;49.814;9.918;2022-07-04T01:57:33;17.30;99.90
25050;DHT22;13046;49.814;9.918;2022-07-04T01:59:59;17.20;99.90
25050;DHT22;13046;49.814;9.918;2022-07-04T02:02:43;17.10;99.90
25050;DHT22;13046;49.814;9.918;2022-07-04T02:05:09;17.10;99.90
25050;DHT22;13046;49.814;9.918;2022-07-04T02:07:35;17.20;99.90
25050;DHT22;13046;49.814;9.918;2022-07-04T02:10:01;17.20;99.90
25050;DHT22;13046;49.814;9.918;2022-07-04T02:12:27;17.30;99.90
25050;DHT22;13046;49.814;9.918;2022-07-04T02:15:11;17.20;99.90
25050;DHT22;13046;49.814;9.918;2022-07-04T02:17:37;17.20;99.90
25050;DHT22;13046;49.814;9.918;2022-07-04T02:20:04;17.20;99.90
25050;DHT22;13046;49.814;9.918;2022-07-04T02:22:30;17.20;99.90
25050;DHT22;13046;49.814;9.918;2022-07-04T02:24:56;17.20;99.90
25050;DHT22;13046;49.814;9.918;2022-07-04T02:27:22;17.10;99.90
25050;DHT22;13046;49.814;9.918;2022-07-04T02:29:48;17.10;99.90
25050;DHT22;13046;49.814;9.918;2022-07-04T02:32:14;17.10;99.90
25050;DHT22;13046;49.814;9.918;2022-07-04T02:34:39;17.10;99.90
25050;DHT22;13046;49.814;9.918;2022-07-04T02:37:05;17.00;99.90
25050;DHT22;13046;49.814;9.918;2022-07-04T02:39:31;17.00;99.90
25050;DHT22;13046;49.814;9.918;2022-07-04T02:41:56;16.90;99.90
25050;DHT22;13046;49.814;9.918;2022-07-04T02:44:22;16.80;99.90
25050;DHT22;13046;49.814;9.918;2022-07-04T02:46:47;16.70;99.90
25050;DHT22;13046;49.814;9.918;2022-07-04T02:49:13;16.70;99.90
25050;DHT22;13046;49.814;9.918;2022-07-04T02:51:39;16.60;99.90
25050;DHT22;13046;49.814;9.918;2022-07-04T02:54:05;16.60;99.90
25050;DHT22;13046;49.814;9.918;2022-07-04T02:56:30;16.60;99.90
25050;DHT22;13046;49.814;9.918;2022-07-04T02:58:56;16.70;99.90
25050;DHT22;13046;49.814;9.918;2022-07-04T03:01:21;16.70;99.90
25050;DHT22;13046;49.814;9.918;2022-07-04T03:03:47;16.60;99.90
25050;DHT22;13046;49.814;9.918;2022-07-04T03:06:13;16.40;99.90
25050;DHT22;13046;49.814;9.918;2022-07-04T03:08:39;16.50;99.90
25050;DHT22;13046;49.814;9.918;2022-07-04T03:11:05;16.50;99.90
25050;DHT22;13046;49.814;9.918;2022-07-04T03:13:31;16.60;99.90
25050;DHT22;13046;49.814;9.918;2022-07-04T03:15:57;16.50;99.90
25050;DHT22;13046;49.814;9.918;2022-07-04T03:18:23;16.50;99.90
25050;DHT22;13046;49.814;9.918;2022-07-04T03:20:48;16.40;99.90
25050;DHT22;13046;49.814;9.918;2022-07-04T03:23:14;16.40;99.90
25050;DHT22;13046;49.814;9.918;2022-07-04T03:25:40;16.30;99.90
25050;DHT22;13046;49.814;9.918;2022-07-04T03:28:06;16.30;99.90
25050;DHT22;13046;49.814;9.918;2022-07-04T03:30:33;16.30;99.90
25050;DHT22;13046;49.814;9.918;2022-07-04T03:32:59;16.30;99.90
25050;DHT22;13046;49.814;9.918;2022-07-04T03:35:25;16.30;99.90
25050;DHT22;13046;49.814;9.918;2022-07-04T03:37:52;16.30;99.90
25050;DHT22;13046;49.814;9.918;2022-07-04T03:40:19;16.30;99.90
25050;DHT22;13046;49.814;9.918;2022-07-04T03:42:44;16.20;99.90
25050;DHT22;13046;49.814;9.918;2022-07-04T03:45:11;16.10;99.90
25050;DHT22;13046;49.814;9.918;2022-07-04T03:47:36;16.20;99.90
25050;DHT22;13046;49.814;9.918;2022-07-04T03:50:03;16.20;99.90
25050;DHT22;13046;49.814;9.918;2022-07-04T03:52:29;16.10;99.90
25050;DHT22;13046;49.814;9.918;2022-07-04T03:54:54;16.10;99.90
25050;DHT22;13046;49.814;9.918;2022-07-04T03:57:20;15.90;99.90
25050;DHT22;13046;49.814;9.918;2022-07-04T03:59:46;15.80;99.90
25050;DHT22;13046;49.814;9.918;2022-07-04T04:02:12;15.80;99.90
25050;DHT22;13046;49.814;9.918;2022-07-04T04:04:38;15.90;99.90
25050;DHT22;13046;49.814;9.918;2022-07-04T04:07:22;16.10;99.90
25050;DHT22;13046;49.814;9.918;2022-07-04T04:09:48;16.20;99.90
25050;DHT22;13046;49.814;9.918;2022-07-04T04:12:13;16.20;99.90
25050;DHT22;13046;49.814;9.918;2022-07-04T04:14:39;16.20;99.90
25050;DHT22;13046;49.814;9.918;2022-07-04T04:17:05;16.20;99.90
25050;DHT22;13046;49.814;9.918;2022-07-04T04:19:31;16.30;99.90
25050;DHT22;13046;49.814;9.918;2022-07-04T04:21:56;16.40;99.90
25050;DHT22;13046;49.814;9.918;2022-07-04T04:24:22;16.30;99.90
25050;DHT22;13046;49.814;9.918;2022-07-04T04:26:47;16.40;99.90
25050;DHT22;13046;49.814;9.918;2022-07-04T04:29:13;16.50;99.90
25050;DHT22;13046;49.814;9.918;2022-07-04T04:31:39;16.60;99.90
25050;DHT22;13046;49.814;9.918;2022-07-04T04:34:04;16.70;99.90
25050;DHT22;13046;49.814;9.918;2022-07-04T04:36:30;16.70;99.90
25050;DHT22;13046;49.814;9.918;2022-07-04T04:38:56;16.80;99.90
25050;DHT22;13046;49.814;9.918;2022-07-04T04:41:22;16.90;99.90
25050;DHT22;13046;49.814;9.918;2022-07-04T04:43:47;16.90;99.90
25050;DHT22;13046;49.814;9.918;2022-07-04T04:46:13;17.00;99.90
25050;DHT22;13046;49.814;9.918;2022-07-04T04:48:39;17.10;99.90
25050;DHT22;13046;49.814;9.918;2022-07-04T04:51:05;17.20;99.90
25050;DHT22;13046;49.814;9.918;2022-07-04T04:53:31;17.30;99.90
25050;DHT22;13046;49.814;9.918;2022-07-04T04:55:56;17.30;99.90
25050;DHT22;13046;49.814;9.918;2022-07-04T04:58:23;17.50;99.90
25050;DHT22;13046;49.814;9.918;2022-07-04T05:00:50;17.50;99.90
25050;DHT22;13046;49.814;9.918;2022-07-04T05:03:16;17.60;99.90
25050;DHT22;13046;49.814;9.918;2022-07-04T05:05:43;17.70;99.90
25050;DHT22;13046;49.814;9.918;2022-07-04T05:08:09;17.70;99.90
25050;DHT22;13046;49.814;9.918;2022-07-04T05:10:34;17.80;99.90
25050;DHT22;13046;49.814;9.918;2022-07-04T05:13:00;17.90;99.90
25050;DHT22;13046;49.814;9.918;2022-07-04T05:15:26;18.10;99.90
25050;DHT22;13046;49.814;9.918;2022-07-04T05:17:54;18.20;99.90
25050;DHT22;13046;49.814;9.918;2022-07-04T05:20:19;18.40;99.90
25050;DHT22;13046;49.814;9.918;2022-07-04T05:22:45;18.60;99.90
25050;DHT22;13046;49.814;9.918;2022-07-04T05:25:11;18.90;99.90
25050;DHT22;13046;49.814;9.918;2022-07-04T05:27:37;18.90;99.90
25050;DHT22;13046;49.814;9.918;2022-07-04T05:30:03;19.00;99.90
25050;DHT22;13046;49.814;9.918;2022-07-04T05:32:29;19.10;99.90
25050;DHT22;13046;49.814;9.918;2022-07-04T05:34:54;19.20;99.90
25050;DHT22;13046;49.814;9.918;2022-07-04T05:37:21;19.30;99.90
25050;DHT22;13046;49.814;9.918;2022-07-04T05:39:47;19.40;99.90
25050;DHT22;13046;49.814;9.918;2022-07-04T05:42:13;19.50;99.90
25050;DHT22;13046;49.814;9.918;2022-07-04T05:44:38;19.50;99.90
25050;DHT22;13046;49.814;9.918;2022-07-04T05:47:04;19.40;99.90
25050;DHT22;13046;49.814;9.918;2022-07-04T05:49:30;19.30;99.90
25050;DHT22;13046;49.814;9.918;2022-07-04T05:51:55;19.40;99.90
25050;DHT22;13046;49.814;9.918;2022-07-04T05:54:21;19.60;99.90
25050;DHT22;13046;49.814;9.918;2022-07-04T05:56:46;19.70;99.90
25050;DHT22;13046;49.814;9.918;2022-07-04T05:59:12;19.90;99.90
25050;DHT22;13046;49.814;9.918;2022-07-04T06:01:38;19.90;99.90
25050;DHT22;13046;49.814;9.918;2022-07-04T06:04:05;19.90;99.90
25050;DHT22;13046;49.814;9.918;2022-07-04T06:06:30;19.80;99.90
25050;DHT22;13046;49.814;9.918;2022-07-04T06:08:57;20.00;99.90
25050;DHT22;13046;49.814;9.918;2022-07-04T06:11:23;20.10;99.90
25050;DHT22;13046;49.814;9.918;2022-07-04T06:13:49;20.20;99.90
25050;DHT22;13046;49.814;9.918;2022-07-04T06:16:15;20.20;99.90
25050;DHT22;13046;49.814;9.918;2022-07-04T06:18:41;20.20;99.90
25050;DHT22;13046;49.814;9.918;2022-07-04T06:21:07;20.10;99.90
25050;DHT22;13046;49.814;9.918;2022-07-04T06:23:32;20.20;99.90
25050;DHT22;13046;49.814;9.918;2022-07-04T06:25:58;20.30;99.90
25050;DHT22;13046;49.814;9.918;2022-07-04T06:28:24;20.30;99.90
25050;DHT22;13046;49.814;9.918;2022-07-04T06:30:49;20.30;99.90
25050;DHT22;13046;49.814;9.918;2022-07-04T06:33:15;20.40;99.90
25050;DHT22;13046;49.814;9.918;2022-07-04T06:35:41;20.60;99.90
25050;DHT22;13046;49.814;9.918;2022-07-04T06:38:35;20.60;99.90
25050;DHT22;13046;49.814;9.918;2022-07-04T06:41:02;20.70;99.90
25050;DHT22;13046;49.814;9.918;2022-07-04T06:43:27;20.80;99.90
25050;DHT22;13046;49.814;9.918;2022-07-04T06:45:53;20.80;99.90
25050;DHT22;13046;49.814;9.918;2022-07-04T06:48:19;20.80;99.90
25050;DHT22;13046;49.814;9.918;2022-07-04T06:50:45;20.90;99.90
25050;DHT22;13046;49.814;9.918;2022-07-04T06:53:11;21.10;99.90
25050;DHT22;13046;49.814;9.918;2022-07-04T06:55:41;21.40;99.90
25050;DHT22;13046;49.814;9.918;2022-07-04T06:58:08;21.50;99.90
25050;DHT22;13046;49.814;9.918;2022-07-04T07:00:34;21.70;99.90
25050;DHT22;13046;49.814;9.918;2022-07-04T07:03:01;22.00;99.90
25050;DHT22;13046;49.814;9.918;2022-07-04T07:05:28;22.20;99.90
25050;DHT22;13046;49.814;9.918;2022-07-04T07:07:54;22.00;99.90
25050;DHT22;13046;49.814;9.918;2022-07-04T07:10:21;22.10;99.90
25050;DHT22;13046;49.814;9.918;2022-07-04T07:12:47;22.10;99.90
25050;DHT22;13046;49.814;9.918;2022-07-04T07:15:13;22.50;99.90
25050;DHT22;13046;49.814;9.918;2022-07-04T07:17:39;22.70;99.90
25050;DHT22;13046;49.814;9.918;2022-07-04T07:20:06;22.60;99.90
25050;DHT22;13046;49.814;9.918;2022-07-04T07:22:32;22.70;99.90
25050;DHT22;13046;49.814;9.918;2022-07-04T07:24:57;22.60;99.90
25050;DHT22;13046;49.814;9.918;2022-07-04T07:27:23;22.30;99.90
25050;DHT22;13046;49.814;9.918;2022-07-04T07:29:49;22.70;99.90
25050;DHT22;13046;49.814;9.918;2022-07-04T07:32:14;23.00;99.90
25050;DHT22;13046;49.814;9.918;2022-07-04T07:34:40;23.10;99.90
25050;DHT22;13046;49.814;9.918;2022-07-04T07:37:06;23.10;99.90
25050;DHT22;13046;49.814;9.918;2022-07-04T07:39:32;22.90;99.90
25050;DHT22;13046;49.814;9.918;2022-07-04T07:41:58;23.10;99.90
25050;DHT22;13046;49.814;9.918;2022-07-04T07:44:23;23.40;99.90
25050;DHT22;13046;49.814;9.918;2022-07-04T07:46:49;23.50;99.90
25050;DHT22;13046;49.814;9.918;2022-07-04T07:49:15;22.70;99.90
25050;DHT22;13046;49.814;9.918;2022-07-04T07:51:41;22.80;99.90
25050;DHT22;13046;49.814;9.918;2022-07-04T07:54:06;23.20;99.90
25050;DHT22;13046;49.814;9.918;2022-07-04T07:56:32;22.90;99.90
25050;DHT22;13046;49.814;9.918;2022-07-04T07:58:58;23.10;99.90
25050;DHT22;13046;49.814;9.918;2022-07-04T08:01:23;23.20;99.90
25050;DHT22;13046;49.814;9.918;2022-07-04T08:03:49;23.50;99.90
25050;DHT22;13046;49.814;9.918;2022-07-04T08:06:33;23.90;99.90
25050;DHT22;13046;49.814;9.918;2022-07-04T08:08:59;24.00;99.90
25050;DHT22;13046;49.814;9.918;2022-07-04T08:11:25;23.70;99.90
25050;DHT22;13046;49.814;9.918;2022-07-04T08:13:51;23.50;99.90
25050;DHT22;13046;49.814;9.918;2022-07-04T08:16:17;23.40;99.90
25050;DHT22;13046;49.814;9.918;2022-07-04T08:18:43;23.70;99.90
25050;DHT22;13046;49.814;9.918;2022-07-04T08:21:09;23.90;99.90
25050;DHT22;13046;49.814;9.918;2022-07-04T08:23:35;23.40;99.90
25050;DHT22;13046;49.814;9.918;2022-07-04T08:26:02;23.70;99.90
25050;DHT22;13046;49.814;9.918;2022-07-04T08:28:28;24.00;99.90
25050;DHT22;13046;49.814;9.918;2022-07-04T08:30:55;24.20;99.90
25050;DHT22;13046;49.814;9.918;2022-07-04T08:33:22;24.30;99.90
25050;DHT22;13046;49.814;9.918;2022-07-04T08:35:48;24.50;99.90
25050;DHT22;13046;49.814;9.918;2022-07-04T08:38:15;24.10;99.90
25050;DHT22;13046;49.814;9.918;2022-07-04T08:40:41;24.30;99.90
25050;DHT22;13046;49.814;9.918;2022-07-04T08:43:06;24.10;99.90
25050;DHT22;13046;49.814;9.918;2022-07-04T08:45:33;24.40;99.90
25050;DHT22;13046;49.814;9.918;2022-07-04T08:48:04;24.60;99.90
25050;DHT22;13046;49.814;9.918;2022-07-04T08:50:46;24.30;99.90
25050;DHT22;13046;49.814;9.918;2022-07-04T08:53:15;24.40;99.90
25050;DHT22;13046;49.814;9.918;2022-07-04T08:55:45;24.50;99.90
25050;DHT22;13046;49.814;9.918;2022-07-04T08:58:30;24.20;99.90
25050;DHT22;13046;49.814;9.918;2022-07-04T09:01:08;24.10;99.90
25050;DHT22;13046;49.814;9.918;2022-07-04T09:03:34;24.60;99.90
25050;DHT22;13046;49.814;9.918;2022-07-04T09:06:00;25.00;99.90
25050;DHT22;13046;49.814;9.918;2022-07-04T09:08:30;25.30;99.90
25050;DHT22;13046;49.814;9.918;2022-07-04T09:10:56;25.80;99.90
25050;DHT22;13046;49.814;9.918;2022-07-04T09:13:21;25.50;99.90
25050;DHT22;13046;49.814;9.918;2022-07-04T09:15:49;25.50;99.90
25050;DHT22;13046;49.814;9.918;2022-07-04T09:18:32;25.50;99.90
25050;DHT22;13046;49.814;9.918;2022-07-04T09:21:00;25.20;99.90
25050;DHT22;13046;49.814;9.918;2022-07-04T09:23:31;25.00;99.90
25050;DHT22;13046;49.814;9.918;2022-07-04T09:26:14;24.90;99.90
25050;DHT22;13046;49.814;9.918;2022-07-04T09:28:45;25.10;99.90
25050;DHT22;13046;49.814;9.918;2022-07-04T09:31:21;25.30;99.90
25050;DHT22;13046;49.814;9.918;2022-07-04T09:33:54;25.50;99.90
25050;DHT22;13046;49.814;9.918;2022-07-04T09:36:25;25.70;99.90
25050;DHT22;13046;49.814;9.918;2022-07-04T09:39:11;25.70;99.90
25050;DHT22;13046;49.814;9.918;2022-07-04T09:42:01;26.10;99.90
25050;DHT22;13046;49.814;9.918;2022-07-04T10:26:22;26.60;99.90
25050;DHT22;13046;49.814;9.918;2022-07-04T11:01:36;27.60;99.90
25050;DHT22;13046;49.814;9.918;2022-07-04T11:04:02;27.40;98.40
25050;DHT22;13046;49.814;9.918;2022-07-04T11:11:58;27.70;97.30
25050;DHT22;13046;49.814;9.918;2022-07-04T11:17:10;28.20;95.70
25050;DHT22;13046;49.814;9.918;2022-07-04T11:19:37;28.40;96.10
25050;DHT22;13046;49.814;9.918;2022-07-04T11:22:06;27.80;94.50
25050;DHT22;13046;49.814;9.918;2022-07-04T11:24:32;27.70;95.20
25050;DHT22;13046;49.814;9.918;2022-07-04T11:26:58;28.10;96.50
25050;DHT22;13046;49.814;9.918;2022-07-04T11:29:24;28.40;94.70
25050;DHT22;13046;49.814;9.918;2022-07-04T11:36:45;28.40;94.90
25050;DHT22;13046;49.814;9.918;2022-07-04T11:39:17;29.40;96.40
25050;DHT22;13046;49.814;9.918;2022-07-04T11:41:52;28.60;95.20
25050;DHT22;13046;49.814;9.918;2022-07-04T12:07:10;28.60;95.10
25050;DHT22;13046;49.814;9.918;2022-07-04T12:12:03;28.90;91.90
25050;DHT22;13046;49.814;9.918;2022-07-04T12:17:18;29.40;90.60
25050;DHT22;13046;49.814;9.918;2022-07-04T12:19:55;28.40;87.00
25050;DHT22;13046;49.814;9.918;2022-07-04T12:44:40;29.80;80.00
25050;DHT22;13046;49.814;9.918;2022-07-04T12:47:07;29.90;82.30
25050;DHT22;13046;49.814;9.918;2022-07-04T12:49:34;30.70;83.40
25050;DHT22;13046;49.814;9.918;2022-07-04T12:57:08;30.50;78.80
25050;DHT22;13046;49.814;9.918;2022-07-04T12:59:35;29.90;81.50
25050;DHT22;13046;49.814;9.918;2022-07-04T13:02:01;29.70;77.00
25050;DHT22;13046;49.814;9.918;2022-07-04T13:04:27;29.70;76.20
25050;DHT22;13046;49.814;9.918;2022-07-04T13:06:53;29.20;75.20
25050;DHT22;13046;49.814;9.918;2022-07-04T13:09:19;28.70;76.20
25050;DHT22;13046;49.814;9.918;2022-07-04T13:11:45;29.10;82.00
25050;DHT22;13046;49.814;9.918;2022-07-04T13:14:29;29.50;78.00
25050;DHT22;13046;49.814;9.918;2022-07-04T13:16:55;29.70;78.30
25050;DHT22;13046;49.814;9.918;2022-07-04T13:19:20;30.50;78.80
25050;DHT22;13046;49.814;9.918;2022-07-04T13:21:46;30.90;78.30
25050;DHT22;13046;49.814;9.918;2022-07-04T13:24:13;31.10;77.10
25050;DHT22;13046;49.814;9.918;2022-07-04T13:26:39;31.00;79.30
25050;DHT22;13046;49.814;9.918;2022-07-04T13:29:06;30.70;81.30
25050;DHT22;13046;49.814;9.918;2022-07-04T13:31:32;30.60;81.30
25050;DHT22;13046;49.814;9.918;2022-07-04T13:33:58;30.20;78.70
25050;DHT22;13046;49.814;9.918;2022-07-04T13:36:24;30.00;79.00
25050;DHT22;13046;49.814;9.918;2022-07-04T13:41:16;29.00;78.80
25050;DHT22;13046;49.814;9.918;2022-07-04T13:43:42;28.30;73.50
25050;DHT22;13046;49.814;9.918;2022-07-04T13:46:07;28.90;75.70
25050;DHT22;13046;49.814;9.918;2022-07-04T13:48:33;29.10;73.70
25050;DHT22;13046;49.814;9.918;2022-07-04T13:58:17;29.50;74.70
25050;DHT22;13046;49.814;9.918;2022-07-04T14:00:43;31.10;75.30
25050;DHT22;13046;49.814;9.918;2022-07-04T14:03:11;31.40;73.80
25050;DHT22;13046;49.814;9.918;2022-07-04T14:08:03;31.00;73.30
25050;DHT22;13046;49.814;9.918;2022-07-04T14:10:29;29.90;75.00
25050;DHT22;13046;49.814;9.918;2022-07-04T14:12:54;30.10;75.50
25050;DHT22;13046;49.814;9.918;2022-07-04T14:15:20;29.70;76.50
25050;DHT22;13046;49.814;9.918;2022-07-04T14:17:46;29.10;76.80
25050;DHT22;13046;49.814;9.918;2022-07-04T14:20:11;29.10;77.00
25050;DHT22;13046;49.814;9.918;2022-07-04T14:22:38;29.50;76.40
25050;DHT22;13046;49.814;9.918;2022-07-04T14:25:05;30.30;75.10
25050;DHT22;13046;49.814;9.918;2022-07-04T14:27:31;30.70;74.60
25050;DHT22;13046;49.814;9.918;2022-07-04T14:29:56;31.10;73.30
25050;DHT22;13046;49.814;9.918;2022-07-04T14:32:22;30.90;72.40
25050;DHT22;13046;49.814;9.918;2022-07-04T14:34:48;29.90;72.40
25050;DHT22;13046;49.814;9.918;2022-07-04T14:37:14;30.20;71.60
25050;DHT22;13046;49.814;9.918;2022-07-04T14:39:39;29.80;72.00
25050;DHT22;13046;49.814;9.918;2022-07-04T14:42:05;30.00;72.00
25050;DHT22;13046;49.814;9.918;2022-07-04T14:44:31;30.60;71.10
25050;DHT22;13046;49.814;9.918;2022-07-04T14:47:01;30.90;69.30
25050;DHT22;13046;49.814;9.918;2022-07-04T14:49:27;30.90;68.30
25050;DHT22;13046;49.814;9.918;2022-07-04T14:51:52;30.40;69.00
25050;DHT22;13046;49.814;9.918;2022-07-04T14:54:18;30.30;68.10
25050;DHT22;13046;49.814;9.918;2022-07-04T14:56:44;30.40;67.40
25050;DHT22;13046;49.814;9.918;2022-07-04T14:59:09;30.30;67.60
25050;DHT22;13046;49.814;9.918;2022-07-04T15:01:35;30.50;67.70
25050;DHT22;13046;49.814;9.918;2022-07-04T15:04:00;30.50;69.50
25050;DHT22;13046;49.814;9.918;2022-07-04T15:06:26;30.50;69.60
25050;DHT22;13046;49.814;9.918;2022-07-04T15:08:52;30.10;70.80
25050;DHT22;13046;49.814;9.918;2022-07-04T15:11:18;29.80;71.30
25050;DHT22;13046;49.814;9.918;2022-07-04T15:13:44;29.50;70.50
25050;DHT22;13046;49.814;9.918;2022-07-04T15:16:09;29.80;72.30
25050;DHT22;13046;49.814;9.918;2022-07-04T15:18:35;30.20;70.10
25050;DHT22;13046;49.814;9.918;2022-07-04T15:21:01;30.60;68.90
25050;DHT22;13046;49.814;9.918;2022-07-04T15:23:45;30.50;71.90
25050;DHT22;13046;49.814;9.918;2022-07-04T15:26:29;30.30;69.60
25050;DHT22;13046;49.814;9.918;2022-07-04T15:28:55;29.60;71.80
25050;DHT22;13046;49.814;9.918;2022-07-04T15:31:21;29.90;72.80
25050;DHT22;13046;49.814;9.918;2022-07-04T15:33:46;30.10;71.80
25050;DHT22;13046;49.814;9.918;2022-07-04T15:36:12;30.00;70.70
25050;DHT22;13046;49.814;9.918;2022-07-04T15:38:38;30.30;72.00
25050;DHT22;13046;49.814;9.918;2022-07-04T15:41:03;30.60;71.20
25050;DHT22;13046;49.814;9.918;2022-07-04T15:43:30;30.70;71.00
25050;DHT22;13046;49.814;9.918;2022-07-04T15:45:56;29.50;71.20
25050;DHT22;13046;49.814;9.918;2022-07-04T15:48:23;29.10;73.20
25050;DHT22;13046;49.814;9.918;2022-07-04T15:50:49;29.20;72.60
25050;DHT22;13046;49.814;9.918;2022-07-04T15:53:14;29.20;74.30
25050;DHT22;13046;49.814;9.918;2022-07-04T15:55:40;29.80;75.80
25050;DHT22;13046;49.814;9.918;2022-07-04T15:58:06;29.70;74.30
25050;DHT22;13046;49.814;9.918;2022-07-04T16:00:32;29.50;72.90
25050;DHT22;13046;49.814;9.918;2022-07-04T16:02:57;29.60;73.10
25050;DHT22;13046;49.814;9.918;2022-07-04T16:05:23;29.90;74.00
25050;DHT22;13046;49.814;9.918;2022-07-04T16:07:49;29.80;73.00
25050;DHT22;13046;49.814;9.918;2022-07-04T16:17:37;29.80;75.30
25050;DHT22;13046;49.814;9.918;2022-07-04T16:20:18;30.70;70.60
25050;DHT22;13046;49.814;9.918;2022-07-04T16:22:48;30.50;69.10
25050;DHT22;13046;49.814;9.918;2022-07-04T16:25:14;30.70;70.90
25050;DHT22;13046;49.814;9.918;2022-07-04T16:27:39;30.80;69.80
25050;DHT22;13046;49.814;9.918;2022-07-04T16:30:06;31.00;69.60
25050;DHT22;13046;49.814;9.918;2022-07-04T16:32:32;31.20;67.40
25050;DHT22;13046;49.814;9.918;2022-07-04T16:35:01;31.00;68.10
25050;DHT22;13046;49.814;9.918;2022-07-04T16:37:27;31.30;67.50
25050;DHT22;13046;49.814;9.918;2022-07-04T16:39:53;31.30;66.00
25050;DHT22;13046;49.814;9.918;2022-07-04T16:42:18;31.50;66.10
25050;DHT22;13046;49.814;9.918;2022-07-04T16:44:44;31.10;68.10
25050;DHT22;13046;49.814;9.918;2022-07-04T16:47:09;31.10;68.40
25050;DHT22;13046;49.814;9.918;2022-07-04T16:49:35;29.70;67.60
25050;DHT22;13046;49.814;9.918;2022-07-04T16:52:01;29.60;70.60
25050;DHT22;13046;49.814;9.918;2022-07-04T16:54:26;29.80;70.80
25050;DHT22;13046;49.814;9.918;2022-07-04T16:56:52;29.90;70.10
25050;DHT22;13046;49.814;9.918;2022-07-04T16:59:18;29.60;69.80
25050;DHT22;13046;49.814;9.918;2022-07-04T17:01:43;29.90;71.30
25050;DHT22;13046;49.814;9.918;2022-07-04T17:04:09;29.80;73.70
25050;DHT22;13046;49.814;9.918;2022-07-04T17:06:35;29.90;70.90
25050;DHT22;13046;49.814;9.918;2022-07-04T17:09:00;29.80;69.80
25050;DHT22;13046;49.814;9.918;2022-07-04T17:11:26;29.80;70.30
25050;DHT22;13046;49.814;9.918;2022-07-04T17:13:52;30.00;71.30
25050;DHT22;13046;49.814;9.918;2022-07-04T17:16:19;30.00;71.20
25050;DHT22;13046;49.814;9.918;2022-07-04T17:18:45;30.00;71.20
25050;DHT22;13046;49.814;9.918;2022-07-04T17:21:10;30.00;70.90
25050;DHT22;13046;49.814;9.918;2022-07-04T17:23:36;29.60;71.20
25050;DHT22;13046;49.814;9.918;2022-07-04T17:26:03;29.40;71.50
25050;DHT22;13046;49.814;9.918;2022-07-04T17:28:29;28.90;71.10
25050;DHT22;13046;49.814;9.918;2022-07-04T17:30:55;28.80;72.20
25050;DHT22;13046;49.814;9.918;2022-07-04T17:33:21;28.60;73.30
25050;DHT22;13046;49.814;9.918;2022-07-04T17:35:47;28.50;74.40
25050;DHT22;13046;49.814;9.918;2022-07-04T17:38:13;28.70;76.50
25050;DHT22;13046;49.814;9.918;2022-07-04T17:40:39;28.70;76.50
25050;DHT22;13046;49.814;9.918;2022-07-04T17:43:05;28.80;75.50
25050;DHT22;13046;49.814;9.918;2022-07-04T17:45:31;29.10;75.20
25050;DHT22;13046;49.814;9.918;2022-07-04T17:47:57;29.20;74.60
25050;DHT22;13046;49.814;9.918;2022-07-04T17:50:23;29.10;77.70
25050;DHT22;13046;49.814;9.918;2022-07-04T17:52:49;28.80;73.60
25050;DHT22;13046;49.814;9.918;2022-07-04T17:55:15;28.40;75.50
25050;DHT22;13046;49.814;9.918;2022-07-04T18:12:18;27.90;78.70
25050;DHT22;13046;49.814;9.918;2022-07-04T18:14:44;26.70;82.10
25050;DHT22;13046;49.814;9.918;2022-07-04T18:17:09;26.60;83.40
25050;DHT22;13046;49.814;9.918;2022-07-04T18:19:35;26.60;84.10
25050;DHT22;13046;49.814;9.918;2022-07-04T18:22:01;26.30;85.10
25050;DHT22;13046;49.814;9.918;2022-07-04T18:24:27;26.30;85.30